createdAt,value
2022-09-02T00:01:46.070Z,88.97
2022-09-02T00:04:31.908Z,89.02
2022-09-02T00:06:58.674Z,89.38
2022-09-02T00:09:26.583Z,87.71
2022-09-02T00:11:55.283Z,87.66
2022-09-02T00:14:34.027Z,87.04
2022-09-02T00:17:01.299Z,87.17
2022-09-02T00:19:29.590Z,87.77
2022-09-02T00:21:57.733Z,87.71
2022-09-02T00:24:25.342Z,87.56
2022-09-02T00:26:56.496Z,87.60
2022-09-02T00:29:24.462Z,87.30
2022-09-02T00:31:51.996Z,87.29
2022-09-02T00:34:20.776Z,87.11
2022-09-02T00:36:47.798Z,87.43
2022-09-02T00:39:14.793Z,86.63
2022-09-02T00:41:43.613Z,86.73
2022-09-02T00:44:14.029Z,87.15
2022-09-02T00:46:44.045Z,87.59
2022-09-02T00:49:26.508Z,87.91
2022-09-02T00:52:03.263Z,88.39
2022-09-02T00:54:32.877Z,87.83
2022-09-02T00:57:11.029Z,87.67
2022-09-02T00:59:48.838Z,86.40
2022-09-02T01:02:16.344Z,86.50
2022-09-02T01:04:46.928Z,86.18
2022-09-02T01:07:14.907Z,86.82
2022-09-02T01:09:42.835Z,86.32
2022-09-02T01:12:12.846Z,86.26
2022-09-02T01:14:39.685Z,85.58
2022-09-02T01:17:07.967Z,85.27
2022-09-02T01:19:40.992Z,85.51
2022-09-02T01:22:18.554Z,85.93
2022-09-02T01:24:45.546Z,86.10
2022-09-02T01:27:21.516Z,87.00
2022-09-02T01:29:59.865Z,88.33
2022-09-02T01:32:34.964Z,88.63
2022-09-02T01:35:02.184Z,88.76
2022-09-02T01:37:29.050Z,89.27
2022-09-02T01:40:02.329Z,88.75
2022-09-02T01:42:29.612Z,88.08
2022-09-02T01:44:56.431Z,88.72
2022-09-02T01:47:26.713Z,88.93
2022-09-02T01:49:54.781Z,89.01
2022-09-02T01:52:24.501Z,88.31
2022-09-02T01:54:51.789Z,88.29
2022-09-02T01:57:19.482Z,89.05
2022-09-02T01:59:46.680Z,89.54
2022-09-02T02:02:14.751Z,90.01
2022-09-02T02:04:49.520Z,88.78
2022-09-02T02:07:21.205Z,89.42
2022-09-02T02:09:51.053Z,89.98
2022-09-02T02:12:19.904Z,90.64
2022-09-02T02:14:47.028Z,91.24
2022-09-02T02:17:14.530Z,91.65
2022-09-02T02:19:41.520Z,90.27
2022-09-02T02:22:11.422Z,90.34
2022-09-02T02:24:38.939Z,90.65
2022-09-02T02:27:05.820Z,90.80
2022-09-02T02:29:32.785Z,90.39
2022-09-02T02:31:59.616Z,91.02
2022-09-02T02:34:26.550Z,90.41
2022-09-02T02:36:53.367Z,90.41
2022-09-02T02:39:20.374Z,91.27
2022-09-02T02:41:47.680Z,90.03
2022-09-02T02:44:14.608Z,90.22
2022-09-02T02:46:41.738Z,90.35
2022-09-02T02:49:08.744Z,90.15
2022-09-02T02:51:35.923Z,90.10
2022-09-02T02:54:04.092Z,89.90
2022-09-02T02:56:31.336Z,89.56
2022-09-02T02:59:01.583Z,89.25
2022-09-02T03:01:28.471Z,89.32
2022-09-02T03:03:58.852Z,89.51
2022-09-02T03:06:26.564Z,89.58
2022-09-02T03:09:00.798Z,89.47
2022-09-02T03:11:28.689Z,89.99
2022-09-02T03:13:55.754Z,89.90
2022-09-02T03:16:22.957Z,89.51
2022-09-02T03:18:50.708Z,90.08
2022-09-02T03:21:18.365Z,90.63
2022-09-02T03:23:50.394Z,91.36
2022-09-02T03:26:20.745Z,90.25
2022-09-02T03:28:48.774Z,90.54
2022-09-02T03:31:21.812Z,89.87
2022-09-02T03:33:48.964Z,89.64
2022-09-02T03:36:31.475Z,89.77
2022-09-02T03:38:59.437Z,90.35
2022-09-02T03:41:26.396Z,89.38
2022-09-02T03:43:53.219Z,89.40
2022-09-02T03:46:20.241Z,89.42
2022-09-02T03:48:53.010Z,89.69
2022-09-02T03:51:20.323Z,89.93
2022-09-02T03:53:47.267Z,90.42
2022-09-02T03:56:15.784Z,90.62
2022-09-02T03:58:45.585Z,90.55
2022-09-02T04:01:21.477Z,90.89
2022-09-02T04:03:49.017Z,90.90
2022-09-02T04:06:18.823Z,90.70
2022-09-02T04:08:46.203Z,90.87
2022-09-02T04:11:17.922Z,90.72
2022-09-02T04:13:49.136Z,91.05
2022-09-02T04:16:20.020Z,90.65
2022-09-02T04:18:48.553Z,90.80
2022-09-02T04:21:17.035Z,90.39
2022-09-02T04:23:43.871Z,90.54
2022-09-02T04:26:13.591Z,90.51
2022-09-02T04:28:41.035Z,90.41
2022-09-02T04:31:10.255Z,91.17
2022-09-02T04:33:38.102Z,90.89
2022-09-02T04:36:24.983Z,90.26
2022-09-02T04:38:57.601Z,89.71
2022-09-02T04:41:28.243Z,90.07
2022-09-02T04:43:56.693Z,90.21
2022-09-02T04:46:34.278Z,90.46
2022-09-02T04:49:03.523Z,90.52
2022-09-02T04:51:30.735Z,90.17
2022-09-02T04:54:05.879Z,90.85
2022-09-02T04:56:32.793Z,90.70
2022-09-02T04:59:00.630Z,90.77
2022-09-02T05:01:34.718Z,90.90
2022-09-02T05:04:03.402Z,90.77
2022-09-02T05:06:30.314Z,91.83
2022-09-02T05:08:58.426Z,91.02
2022-09-02T05:11:29.974Z,90.81
2022-09-02T05:14:00.036Z,90.79
2022-09-02T05:16:32.400Z,90.65
2022-09-02T05:18:59.895Z,90.11
2022-09-02T05:21:26.734Z,90.29
2022-09-02T05:23:54.636Z,90.50
2022-09-02T05:26:22.841Z,90.87
2022-09-02T05:28:50.010Z,90.75
2022-09-02T05:31:19.560Z,90.80
2022-09-02T05:33:46.983Z,91.04
2022-09-02T05:36:17.117Z,91.54
2022-09-02T05:38:45.120Z,91.82
2022-09-02T05:41:17.809Z,92.35
2022-09-02T05:43:44.947Z,92.13
2022-09-02T05:46:17.843Z,91.81
2022-09-02T05:49:04.438Z,91.83
2022-09-02T05:51:32.204Z,92.13
2022-09-02T05:54:00.639Z,91.88
2022-09-02T05:56:27.989Z,92.22
2022-09-02T05:58:59.188Z,92.28
2022-09-02T06:01:28.619Z,91.89
2022-09-02T06:03:56.271Z,91.58
2022-09-02T06:06:24.006Z,91.91
2022-09-02T06:08:51.505Z,92.18
2022-09-02T06:11:18.704Z,91.99
2022-09-02T06:13:46.822Z,91.89
2022-09-02T06:16:18.475Z,91.83
2022-09-02T06:18:47.987Z,91.67
2022-09-02T06:21:16.198Z,91.93
2022-09-02T06:23:43.730Z,91.42
2022-09-02T06:26:12.942Z,91.86
2022-09-02T06:28:40.004Z,91.98
2022-09-02T06:31:19.298Z,91.64
2022-09-02T06:33:47.777Z,91.97
2022-09-02T06:36:17.902Z,91.47
2022-09-02T06:38:48.487Z,91.45
2022-09-02T06:41:18.230Z,90.96
2022-09-02T06:43:45.556Z,91.04
2022-09-02T06:46:19.505Z,91.65
2022-09-02T06:48:46.957Z,91.58
2022-09-02T06:51:38.718Z,92.09
2022-09-02T06:54:08.764Z,91.43
2022-09-02T06:56:40.366Z,90.93
2022-09-02T06:59:09.250Z,91.13
2022-09-02T07:01:37.252Z,91.22
2022-09-02T07:04:23.469Z,90.94
2022-09-02T07:06:55.044Z,91.28
2022-09-02T07:09:31.488Z,91.40
2022-09-02T07:12:05.113Z,91.28
2022-09-02T07:14:37.517Z,91.63
2022-09-02T07:17:04.371Z,91.25
2022-09-02T07:19:31.249Z,90.72
2022-09-02T07:21:58.304Z,91.21
2022-09-02T07:24:25.195Z,91.09
2022-09-02T07:26:55.378Z,90.63
2022-09-02T07:29:22.989Z,90.10
2022-09-02T07:31:50.226Z,90.42
2022-09-02T07:34:18.929Z,90.46
2022-09-02T07:36:46.572Z,90.42
2022-09-02T07:39:15.209Z,90.35
2022-09-02T07:41:44.977Z,91.17
2022-09-02T07:44:12.404Z,90.16
2022-09-02T07:46:39.984Z,89.77
2022-09-02T07:49:10.149Z,89.52
2022-09-02T07:51:40.130Z,89.60
2022-09-02T07:54:09.323Z,89.56
2022-09-02T07:56:36.289Z,87.74
2022-09-02T07:59:03.312Z,87.57
2022-09-02T08:01:31.346Z,87.76
2022-09-02T08:04:00.459Z,88.13
2022-09-02T08:06:34.911Z,88.38
2022-09-02T08:09:04.559Z,88.83
2022-09-02T08:11:32.926Z,89.22
2022-09-02T08:14:00.916Z,88.47
2022-09-02T08:16:29.198Z,88.52
2022-09-02T08:18:56.194Z,88.84
2022-09-02T08:21:23.145Z,89.22
2022-09-02T08:23:50.831Z,89.09
2022-09-02T08:26:18.676Z,89.02
2022-09-02T08:28:45.885Z,87.86
2022-09-02T08:31:12.723Z,87.35
2022-09-02T08:33:39.628Z,88.04
2022-09-02T08:36:12.080Z,88.09
2022-09-02T08:38:39.134Z,92.53
2022-09-02T08:41:34.339Z,88.87
2022-09-02T08:44:02.061Z,87.61
2022-09-02T08:46:32.418Z,88.01
2022-09-02T08:49:04.435Z,87.31
2022-09-02T08:51:37.647Z,87.70
2022-09-02T08:54:22.590Z,87.75
2022-09-02T08:56:51.863Z,87.59
2022-09-02T08:59:22.983Z,87.81
2022-09-02T09:02:28.728Z,87.14
2022-09-02T09:05:25.936Z,86.60
2022-09-02T09:08:02.743Z,85.89
2022-09-02T09:10:38.631Z,84.76
2022-09-02T09:13:47.299Z,85.05
2022-09-02T09:16:35.010Z,85.07
2022-09-02T09:19:15.398Z,85.43
2022-09-02T09:21:45.061Z,85.47
2022-09-02T09:24:28.236Z,85.24
2022-09-02T09:26:56.176Z,84.99
2022-09-02T09:29:23.499Z,83.30
2022-09-02T09:31:57.553Z,82.13
2022-09-02T09:34:25.919Z,82.54
2022-09-02T09:36:56.695Z,82.72
2022-09-02T09:39:36.244Z,83.02
2022-09-02T09:42:15.059Z,83.24
2022-09-02T09:44:46.493Z,82.08
2022-09-02T09:47:20.735Z,81.41
2022-09-02T09:49:50.578Z,81.17
2022-09-02T09:52:28.503Z,81.66
2022-09-02T09:55:12.687Z,81.90
2022-09-02T09:57:45.799Z,80.82
2022-09-02T10:00:29.334Z,81.13
2022-09-02T10:03:00.851Z,80.77
2022-09-02T10:05:33.527Z,80.73
2022-09-02T10:08:04.157Z,80.67
2022-09-02T10:11:06.677Z,79.25
2022-09-02T10:13:35.853Z,78.99
2022-09-02T10:16:26.360Z,78.81
2022-09-02T10:19:00.876Z,79.13
2022-09-02T10:21:55.497Z,78.55
2022-09-02T10:24:52.978Z,77.35
2022-09-02T10:28:04.422Z,76.65
2022-09-02T10:30:43.013Z,77.34
2022-09-02T10:33:19.355Z,77.53
2022-09-02T10:35:59.186Z,75.26
2022-09-02T10:38:51.893Z,74.57
2022-09-02T10:41:32.121Z,73.94
2022-09-02T10:44:13.670Z,74.85
2022-09-02T10:47:00.846Z,75.64
2022-09-02T10:49:45.729Z,74.55
2022-09-02T10:52:32.902Z,73.75
2022-09-02T10:55:15.075Z,73.67
2022-09-02T10:57:48.234Z,74.87
2022-09-02T11:00:18.364Z,74.50
2022-09-02T11:02:54.584Z,76.42
2022-09-02T11:05:45.591Z,74.75
2022-09-02T11:08:15.302Z,72.79
2022-09-02T11:10:56.178Z,72.41
2022-09-02T11:13:41.479Z,73.56
2022-09-02T11:16:28.718Z,69.55
2022-09-02T11:19:16.540Z,69.74
2022-09-02T11:22:03.487Z,70.09
2022-09-02T11:24:43.264Z,70.18
2022-09-02T11:27:41.519Z,70.13
2022-09-02T11:30:18.469Z,69.96
2022-09-02T11:32:51.752Z,70.38
2022-09-02T11:35:24.884Z,69.11
2022-09-02T11:38:01.829Z,66.71
2022-09-02T11:40:44.902Z,65.44
2022-09-02T11:43:22.144Z,65.73
2022-09-02T11:46:06.288Z,65.56
2022-09-02T11:48:52.722Z,66.64
2022-09-02T11:51:42.024Z,63.36
2022-09-02T11:54:12.298Z,62.12
2022-09-02T11:56:45.621Z,60.64
2022-09-02T11:59:23.365Z,60.59
2022-09-02T12:01:56.337Z,60.64
2022-09-02T12:04:58.429Z,59.93
2022-09-02T12:07:15.450Z,59.69
2022-09-02T12:09:47.629Z,59.84
2022-09-02T12:12:25.091Z,58.59
2022-09-02T12:15:04.040Z,58.27
2022-09-02T12:17:44.754Z,59.13
2022-09-02T12:20:39.070Z,58.40
2022-09-02T12:23:08.102Z,56.13
2022-09-02T12:25:40.588Z,56.52
2022-09-02T12:28:20.671Z,56.29
2022-09-02T12:31:05.645Z,56.05
2022-09-02T12:33:44.913Z,56.44
2022-09-02T12:36:33.153Z,57.55
2022-09-02T12:39:20.680Z,57.21
2022-09-02T12:41:59.801Z,56.83
2022-09-02T12:44:37.291Z,57.76
2022-09-02T12:47:11.413Z,57.73
2022-09-02T12:49:46.018Z,57.99
2022-09-02T12:52:37.250Z,57.89
2022-09-02T12:55:13.769Z,57.84
2022-09-02T12:57:44.055Z,57.70
2022-09-02T13:00:17.070Z,56.94
2022-09-02T13:03:03.790Z,57.49
2022-09-02T13:05:41.181Z,58.16
2022-09-02T13:08:31.031Z,57.77
2022-09-02T13:11:32.655Z,56.92
2022-09-02T13:14:14.034Z,57.49
2022-09-02T13:17:33.032Z,55.92
2022-09-02T13:20:24.580Z,56.01
2022-09-02T13:23:01.784Z,55.95
2022-09-02T13:25:46.771Z,56.00
2022-09-02T13:28:25.343Z,56.86
2022-09-02T13:31:04.538Z,56.43
2022-09-02T13:33:31.741Z,56.67
2022-09-02T13:35:59.926Z,56.27
2022-09-02T13:38:34.546Z,56.45
2022-09-02T13:41:02.932Z,56.42
2022-09-02T13:43:30.261Z,57.24
2022-09-02T13:46:05.122Z,57.87
2022-09-02T13:48:40.204Z,58.50
2022-09-02T13:51:14.326Z,58.30
2022-09-02T13:54:04.938Z,58.68
2022-09-02T13:56:33.423Z,59.31
2022-09-02T13:59:03.021Z,58.90
2022-09-02T14:01:30.595Z,59.10
2022-09-02T14:04:02.344Z,59.91
2022-09-02T14:06:36.967Z,58.90
2022-09-02T14:09:08.850Z,58.93
2022-09-02T14:11:43.365Z,59.59
2022-09-02T14:14:23.929Z,59.63
2022-09-02T14:16:52.969Z,59.05
2022-09-02T14:19:21.551Z,59.22
2022-09-02T14:21:58.232Z,59.23
2022-09-02T14:24:30.843Z,58.74
2022-09-02T14:27:00.323Z,59.04
2022-09-02T14:29:32.347Z,58.82
2022-09-02T14:32:14.601Z,58.78
2022-09-02T14:34:45.181Z,58.27
2022-09-02T14:37:28.765Z,57.61
2022-09-02T14:40:11.669Z,56.78
2022-09-02T14:42:56.584Z,56.84
2022-09-02T14:45:35.282Z,56.92
2022-09-02T14:48:11.048Z,56.47
2022-09-02T14:50:40.090Z,56.25
2022-09-02T14:53:10.476Z,56.69
2022-09-02T14:55:43.884Z,55.87
2022-09-02T14:58:11.562Z,55.82
2022-09-02T15:00:39.406Z,56.35
2022-09-02T15:03:07.309Z,57.58
2022-09-02T15:05:34.200Z,59.03
2022-09-02T15:08:01.155Z,59.41
2022-09-02T15:10:28.130Z,60.79
2022-09-02T15:12:57.456Z,62.01
2022-09-02T15:15:25.245Z,62.30
2022-09-02T15:17:52.410Z,62.81
2022-09-02T15:20:19.614Z,63.41
2022-09-02T15:22:46.427Z,63.47
2022-09-02T15:25:14.511Z,63.83
2022-09-02T15:27:41.503Z,63.91
2022-09-02T15:30:09.664Z,63.81
2022-09-02T15:32:38.018Z,63.21
2022-09-02T15:35:07.046Z,62.99
2022-09-02T15:37:37.563Z,63.03
2022-09-02T15:40:09.255Z,63.84
2022-09-02T15:42:40.190Z,63.88
2022-09-02T15:45:11.364Z,64.42
2022-09-02T15:47:38.802Z,64.73
2022-09-02T15:50:06.068Z,64.81
2022-09-02T15:52:34.618Z,65.10
2022-09-02T15:55:01.581Z,65.40
2022-09-02T15:57:29.604Z,64.87
2022-09-02T15:59:56.585Z,64.74
2022-09-02T16:02:23.658Z,64.19
2022-09-02T16:04:50.602Z,65.29
2022-09-02T16:07:17.489Z,65.16
2022-09-02T16:09:44.822Z,65.55
2022-09-02T16:12:11.695Z,65.75
2022-09-02T16:14:38.639Z,65.55
2022-09-02T16:17:05.601Z,65.79
2022-09-02T16:19:32.407Z,65.87
2022-09-02T16:21:59.622Z,65.71
2022-09-02T16:24:26.861Z,65.99
2022-09-02T16:26:53.883Z,65.70
2022-09-02T16:29:21.241Z,65.37
2022-09-02T16:32:02.233Z,64.93
2022-09-02T16:34:36.194Z,64.76
2022-09-02T16:37:03.007Z,63.97
2022-09-02T16:39:29.951Z,64.06
2022-09-02T16:41:57.321Z,63.63
2022-09-02T16:44:25.406Z,63.35
2022-09-02T16:46:53.482Z,63.19
2022-09-02T16:49:22.447Z,63.45
2022-09-02T16:51:57.976Z,63.41
2022-09-02T16:54:31.478Z,62.46
2022-09-02T16:57:01.080Z,62.32
2022-09-02T16:59:28.122Z,62.67
2022-09-02T17:01:55.192Z,62.45
2022-09-02T17:04:22.128Z,63.01
2022-09-02T17:06:49.109Z,63.00
2022-09-02T17:09:16.563Z,62.68
2022-09-02T17:11:45.542Z,63.68
2022-09-02T17:14:16.200Z,63.61
2022-09-02T17:16:49.176Z,63.75
2022-09-02T17:19:21.825Z,64.38
2022-09-02T17:21:53.470Z,65.18
2022-09-02T17:24:23.984Z,65.13
2022-09-02T17:26:54.586Z,65.64
2022-09-02T17:29:47.908Z,65.17
2022-09-02T17:32:10.590Z,65.54
2022-09-02T17:34:37.796Z,65.69
2022-09-02T17:37:05.506Z,66.06
2022-09-02T17:39:34.244Z,65.43
2022-09-02T17:42:02.351Z,65.38
2022-09-02T17:44:38.735Z,65.92
2022-09-02T17:47:17.611Z,65.70
2022-09-02T17:49:45.075Z,66.39
2022-09-02T17:52:22.207Z,66.31
2022-09-02T17:54:51.111Z,67.40
2022-09-02T17:57:46.232Z,66.65
2022-09-02T18:00:16.281Z,66.23
2022-09-02T18:03:00.983Z,66.82
2022-09-02T18:05:49.137Z,66.87
2022-09-02T18:08:23.607Z,67.90
2022-09-02T18:10:58.054Z,67.87
2022-09-02T18:13:31.465Z,68.08
2022-09-02T18:16:29.442Z,68.60
2022-09-02T18:19:08.302Z,68.23
2022-09-02T18:22:06.341Z,68.55
2022-09-02T18:24:58.766Z,68.74
2022-09-02T18:27:34.847Z,69.79
2022-09-02T18:30:12.272Z,68.90
2022-09-02T18:33:07.416Z,68.93
2022-09-02T18:35:55.711Z,68.73
2022-09-02T18:38:38.876Z,69.10
2022-09-02T18:41:42.465Z,68.87
2022-09-02T18:44:23.409Z,68.60
2022-09-02T18:46:59.642Z,69.03
2022-09-02T18:49:31.216Z,68.45
2022-09-02T18:52:00.807Z,68.17
2022-09-02T18:54:34.239Z,68.16
2022-09-02T18:57:07.924Z,68.26
2022-09-02T18:59:43.310Z,68.85
2022-09-02T19:02:26.952Z,68.64
2022-09-02T19:04:57.608Z,69.05
2022-09-02T19:07:42.806Z,70.31
2022-09-02T19:10:10.213Z,69.02
2022-09-02T19:12:39.362Z,69.21
2022-09-02T19:15:13.127Z,69.68
2022-09-02T19:17:41.097Z,69.30
2022-09-02T19:20:09.237Z,69.68
2022-09-02T19:22:44.551Z,70.05
2022-09-02T19:25:17.651Z,70.18
2022-09-02T19:27:45.865Z,69.57
2022-09-02T19:30:22.613Z,71.33
2022-09-02T19:32:53.003Z,71.46
2022-09-02T19:35:23.174Z,72.63
2022-09-02T19:37:53.076Z,73.52
2022-09-02T19:40:26.674Z,74.09
2022-09-02T19:42:56.552Z,74.18
2022-09-02T19:45:23.910Z,74.19
2022-09-02T19:48:08.315Z,74.85
2022-09-02T19:50:43.670Z,75.41
2022-09-02T19:53:17.455Z,76.18
2022-09-02T19:55:44.442Z,76.39
2022-09-02T19:58:11.312Z,76.98
2022-09-02T20:00:43.021Z,76.28
2022-09-02T20:03:11.997Z,77.04
2022-09-02T20:05:41.018Z,77.79
2022-09-02T20:08:10.375Z,77.65
2022-09-02T20:10:39.713Z,77.89
2022-09-02T20:13:07.825Z,78.06
2022-09-02T20:15:38.689Z,77.16
2022-09-02T20:18:13.151Z,77.40
2022-09-02T20:20:45.727Z,77.80
2022-09-02T20:23:17.078Z,78.27
2022-09-02T20:25:57.139Z,78.73
2022-09-02T20:28:34.605Z,78.49
2022-09-02T20:31:21.190Z,78.34
2022-09-02T20:34:05.014Z,79.04
2022-09-02T20:36:42.945Z,79.05
2022-09-02T20:39:38.297Z,78.98
2022-09-02T20:42:18.121Z,79.05
2022-09-02T20:45:05.932Z,79.31
2022-09-02T20:47:43.521Z,78.35
2022-09-02T20:50:29.823Z,79.17
2022-09-02T20:53:14.014Z,78.94
2022-09-02T20:56:05.359Z,79.11
2022-09-02T20:58:44.263Z,79.88
2022-09-02T21:01:18.707Z,79.01
2022-09-02T21:04:02.320Z,79.04
2022-09-02T21:06:34.875Z,79.32
2022-09-02T21:09:10.473Z,78.71
2022-09-02T21:11:48.513Z,77.94
2022-09-02T21:14:28.530Z,78.41
2022-09-02T21:17:07.511Z,78.33
2022-09-02T21:19:42.074Z,78.01
2022-09-02T21:22:19.562Z,77.42
2022-09-02T21:25:25.878Z,76.52
2022-09-02T21:28:03.983Z,75.75
2022-09-02T21:30:48.089Z,76.02
2022-09-02T21:33:18.826Z,75.59
2022-09-02T21:35:54.162Z,75.22
2022-09-02T21:38:30.071Z,75.55
2022-09-02T21:41:04.128Z,73.81
2022-09-02T21:44:01.794Z,73.81
2022-09-02T21:46:47.038Z,72.86
2022-09-02T21:49:26.604Z,71.21
2022-09-02T21:52:15.608Z,71.34
2022-09-02T21:55:02.034Z,70.28
2022-09-02T21:57:39.028Z,70.47
2022-09-02T22:05:13.857Z,71.04
2022-09-02T22:07:55.769Z,71.21
2022-09-02T22:10:29.562Z,70.86
2022-09-02T22:13:03.983Z,71.83
2022-09-02T22:15:44.403Z,71.42
2022-09-02T22:18:17.124Z,71.03
2022-09-02T22:20:47.902Z,70.85
2022-09-02T22:23:25.920Z,71.14
2022-09-02T22:26:17.187Z,70.94
2022-09-02T22:28:49.285Z,70.82
2022-09-02T22:31:21.760Z,70.33
2022-09-02T22:33:56.077Z,70.53
2022-09-02T22:36:35.301Z,70.11
2022-09-02T22:39:05.205Z,70.57
2022-09-02T22:41:40.152Z,70.49
2022-09-02T22:44:15.031Z,70.68
2022-09-02T22:46:57.588Z,69.94
2022-09-02T22:49:50.829Z,69.38
2022-09-02T22:52:56.509Z,69.88
2022-09-02T22:55:48.231Z,69.89
2022-09-02T22:58:39.038Z,69.42
2022-09-02T23:01:12.581Z,69.25
2022-09-02T23:04:11.605Z,68.38
2022-09-02T23:06:41.762Z,67.86
2022-09-02T23:09:09.616Z,67.68
2022-09-02T23:11:53.328Z,67.84
2022-09-02T23:14:39.901Z,67.74
2022-09-02T23:17:38.177Z,67.31
2022-09-02T23:20:16.506Z,67.58
2022-09-02T23:22:54.711Z,67.57
2022-09-02T23:25:40.908Z,67.26
2022-09-02T23:28:19.465Z,66.46
2022-09-02T23:31:05.816Z,65.63
2022-09-02T23:33:51.172Z,66.20
2022-09-02T23:36:35.419Z,66.23
2022-09-02T23:39:28.174Z,66.82
2022-09-02T23:42:02.776Z,66.55
2022-09-02T23:44:33.361Z,66.81
2022-09-02T23:47:21.515Z,66.92
2022-09-02T23:50:04.809Z,66.58
2022-09-02T23:52:47.125Z,67.38
2022-09-02T23:55:32.222Z,66.82
2022-09-02T23:58:27.850Z,67.02
